Time;durP1;ratioP1;P1;durP2;ratioP2;P2;SDS_P1;SDS_P2;PMS_P1;PMS_P2;Temp;Humidity;BMP_temperature;BMP_pressure;BME280_temperature;BME280_humidity;BME280_pressure;Samples;Min_cycle;Max_cycle;Signal;HPM_P1;HPM_P2
2023/10/28 00:01:36;;;;;;;1.77;0.68;;;11.20;99.90;;;;;;4980385;29;20033;-81
2023/10/28 00:04:16;;;;;;;7.70;0.68;;;11.20;99.90;;;;;;4981540;28;20016;-81
2023/10/28 00:06:44;;;;;;;2.00;0.60;;;11.10;99.90;;;;;;4979931;29;20034;-81
2023/10/28 00:09:11;;;;;;;0.38;0.20;;;11.10;99.90;;;;;;4979990;29;20031;-81
2023/10/28 00:11:37;;;;;;;1.63;0.60;;;9.70;99.90;;;;;;4978861;29;20039;-81
2023/10/28 00:14:04;;;;;;;4.00;0.40;;;11.10;99.90;;;;;;4979294;29;20015;-81
2023/10/28 00:16:30;;;;;;;0.40;0.40;;;11.10;99.90;;;;;;4963500;29;20019;-82
2023/10/28 00:21:46;;;;;;;1.38;1.00;;;10.90;99.90;;;;;;4978360;29;20022;-81
2023/10/28 00:24:11;;;;;;;0.60;0.40;;;10.90;99.90;;;;;;4976789;29;20035;-81
2023/10/28 00:26:37;;;;;;;2.80;0.52;;;11.00;99.90;;;;;;4978346;29;20022;-81
2023/10/28 00:29:05;;;;;;;4.07;0.50;;;11.00;99.90;;;;;;4977446;29;20077;-81
2023/10/28 00:31:31;;;;;;;1.10;0.52;;;11.00;99.90;;;;;;4974735;28;20031;-81
2023/10/28 00:33:58;;;;;;;8.35;0.60;;;11.00;99.90;;;;;;4977096;29;20027;-80
2023/10/28 00:36:23;;;;;;;0.95;0.20;;;11.00;99.90;;;;;;4976316;29;20027;-81
2023/10/28 00:39:07;;;;;;;3.10;0.70;;;10.80;99.90;;;;;;4959944;28;20054;-78
2023/10/28 00:41:32;;;;;;;5.10;1.20;;;10.80;99.90;;;;;;4964141;29;20019;-78
2023/10/28 00:44:01;;;;;;;3.08;0.38;;;10.80;99.90;;;;;;4963081;29;20023;-78
2023/10/28 00:46:29;;;;;;;4.60;0.77;;;10.80;99.90;;;;;;4964569;28;20027;-78
2023/10/28 00:48:55;;;;;;;2.00;0.30;;;10.70;99.90;;;;;;4964238;29;20039;-78
2023/10/28 00:51:21;;;;;;;2.58;0.40;;;10.70;99.90;;;;;;4964788;29;20444;-78
2023/10/28 00:53:48;;;;;;;0.90;0.40;;;10.60;99.90;;;;;;4964151;29;20030;-78
2023/10/28 00:56:23;;;;;;;1.77;0.40;;;10.60;99.90;;;;;;4963019;29;20567;-78
2023/10/28 00:58:51;;;;;;;2.65;0.50;;;10.60;99.90;;;;;;4967115;29;20035;-77
2023/10/28 01:01:17;;;;;;;1.92;0.50;;;10.60;99.90;;;;;;4968973;28;20042;-79
2023/10/28 01:03:43;;;;;;;1.33;0.45;;;10.70;99.90;;;;;;4968657;29;20480;-78
2023/10/28 01:06:10;;;;;;;0.77;0.25;;;10.70;99.90;;;;;;4969549;29;20031;-79
2023/10/28 01:08:36;;;;;;;0.65;0.40;;;10.70;99.90;;;;;;4966974;29;20041;-78
2023/10/28 01:11:03;;;;;;;2.22;0.40;;;10.70;99.90;;;;;;4965534;29;20023;-77
2023/10/28 01:13:30;;;;;;;0.82;0.50;;;10.70;99.90;;;;;;4965626;29;20023;-78
2023/10/28 01:15:56;;;;;;;1.70;0.57;;;10.60;99.90;;;;;;4972736;29;20039;-79
2023/10/28 01:18:23;;;;;;;2.28;0.40;;;10.50;99.90;;;;;;4970349;28;20047;-78
2023/10/28 01:20:48;;;;;;;2.97;0.60;;;10.50;99.90;;;;;;4971372;29;20567;-79
2023/10/28 01:23:14;;;;;;;1.20;0.50;;;10.50;99.90;;;;;;4971250;29;20027;-77
2023/10/28 01:25:43;;;;;;;0.65;0.40;;;10.60;99.90;;;;;;4973174;29;20050;-78
2023/10/28 01:28:08;;;;;;;2.97;0.63;;;10.50;99.90;;;;;;4972473;29;20050;-78
2023/10/28 01:30:34;;;;;;;2.85;0.75;;;10.50;99.90;;;;;;4972963;29;20035;-78
2023/10/28 01:33:02;;;;;;;1.90;0.40;;;10.50;99.90;;;;;;4970703;29;20023;-78
2023/10/28 01:35:28;;;;;;;1.93;0.67;;;10.40;99.90;;;;;;4973711;28;20087;-79
2023/10/28 01:38:06;;;;;;;0.50;0.30;;;10.40;99.90;;;;;;4975685;29;20031;-78
2023/10/28 01:40:33;;;;;;;2.15;0.75;;;10.40;99.90;;;;;;4971027;29;20023;-78
2023/10/28 01:42:59;;;;;;;1.58;0.40;;;10.30;99.90;;;;;;4968390;28;20030;-79
2023/10/28 01:45:25;;;;;;;1.48;0.45;;;10.30;99.90;;;;;;4967965;29;20372;-78
2023/10/28 01:47:52;;;;;;;0.63;0.43;;;10.40;99.90;;;;;;4966767;29;20035;-79
2023/10/28 01:50:21;;;;;;;0.95;0.52;;;10.50;99.90;;;;;;4970442;29;20024;-79
2023/10/28 01:52:46;;;;;;;3.03;0.60;;;10.50;99.90;;;;;;4966997;29;20366;-78
2023/10/28 01:55:13;;;;;;;0.93;0.70;;;10.50;99.90;;;;;;4970288;29;20042;-77
2023/10/28 01:57:39;;;;;;;2.75;0.50;;;10.50;99.90;;;;;;4966664;29;20066;-77
2023/10/28 02:00:12;;;;;;;0.45;0.45;;;10.40;99.90;;;;;;4964513;29;20033;-78
2023/10/28 02:02:38;;;;;;;1.00;0.40;;;10.40;99.90;;;;;;4962079;29;20430;-78
2023/10/28 02:05:04;;;;;;;1.13;0.30;;;10.30;99.90;;;;;;4962758;28;20027;-78
2023/10/28 02:07:32;;;;;;;3.47;0.50;;;10.10;99.90;;;;;;4964660;28;20031;-78
2023/10/28 02:09:58;;;;;;;5.05;0.98;;;10.00;99.90;;;;;;4964913;28;20488;-77
2023/10/28 02:12:24;;;;;;;3.38;0.40;;;9.90;99.90;;;;;;4961832;29;20047;-79
2023/10/28 02:14:51;;;;;;;0.75;0.40;;;9.70;99.90;;;;;;4964619;28;20027;-78
2023/10/28 02:17:17;;;;;;;0.90;0.50;;;9.50;99.90;;;;;;4964237;28;20573;-79
2023/10/28 02:19:43;;;;;;;1.88;0.40;;;9.40;99.90;;;;;;4963068;29;20496;-79
2023/10/28 02:22:10;;;;;;;0.38;0.38;;;9.30;99.90;;;;;;4962114;29;20091;-79
2023/10/28 02:24:36;;;;;;;2.00;0.50;;;9.10;99.90;;;;;;4961720;29;20032;-80
2023/10/28 02:27:03;;;;;;;1.45;0.40;;;9.00;99.90;;;;;;4961862;28;20035;-77
2023/10/28 02:29:29;;;;;;;2.47;1.00;;;8.90;99.90;;;;;;4960412;29;20035;-78
2023/10/28 02:31:54;;;;;;;4.57;1.52;;;8.90;99.90;;;;;;4961433;28;20020;-79
2023/10/28 02:34:22;;;;;;;4.00;0.75;;;8.90;99.90;;;;;;4960906;29;20027;-78
2023/10/28 02:36:47;;;;;;;1.75;0.80;;;8.90;99.90;;;;;;4961505;29;20024;-78
2023/10/28 02:39:13;;;;;;;1.08;0.40;;;8.80;99.90;;;;;;4961895;29;20551;-79
2023/10/28 02:41:39;;;;;;;1.23;0.77;;;8.80;99.90;;;;;;4963300;29;20034;-78
2023/10/28 02:44:05;;;;;;;1.20;0.55;;;8.90;99.90;;;;;;4963228;29;20031;-77
2023/10/28 02:46:31;;;;;;;0.85;0.50;;;8.90;99.90;;;;;;4963319;29;20023;-77
2023/10/28 02:48:56;;;;;;;1.40;0.57;;;8.90;99.90;;;;;;4964049;29;20035;-78
2023/10/28 02:51:22;;;;;;;3.88;0.75;;;8.90;99.90;;;;;;4964815;29;20087;-80
2023/10/28 02:53:49;;;;;;;0.57;0.30;;;8.80;99.90;;;;;;4966373;29;20050;-79
2023/10/28 02:56:15;;;;;;;0.50;0.40;;;8.80;99.90;;;;;;4968293;28;20023;-78
2023/10/28 02:58:40;;;;;;;1.85;0.90;;;8.70;99.90;;;;;;4967171;29;20031;-78
2023/10/28 03:01:12;;;;;;;0.65;0.55;;;8.70;99.90;;;;;;4968392;29;20028;-78
2023/10/28 03:04:03;;;;;;;0.98;0.30;;;8.70;99.90;;;;;;4968606;29;20075;-79
2023/10/28 03:06:29;;;;;;;4.60;0.90;;;8.60;99.90;;;;;;4970019;28;20027;-77
2023/10/28 03:08:56;;;;;;;3.08;0.40;;;8.50;99.90;;;;;;4968483;28;20031;-78
2023/10/28 03:11:22;;;;;;;1.77;0.65;;;8.50;99.90;;;;;;4966925;29;20034;-79
2023/10/28 03:13:47;;;;;;;4.88;0.57;;;8.40;99.90;;;;;;4964097;29;20031;-78
2023/10/28 03:16:13;;;;;;;3.95;1.20;;;8.30;99.90;;;;;;4964307;29;20050;-78
2023/10/28 03:18:39;;;;;;;2.05;0.40;;;8.30;99.90;;;;;;4963304;29;20054;-77
2023/10/28 03:21:06;;;;;;;2.42;0.65;;;8.20;99.90;;;;;;4965482;29;20031;-77
2023/10/28 03:23:32;;;;;;;0.73;0.52;;;8.10;99.90;;;;;;4965959;28;20027;-78
2023/10/28 03:25:58;;;;;;;2.13;0.63;;;8.10;99.90;;;;;;4964300;29;20026;-78
2023/10/28 03:28:24;;;;;;;1.65;0.93;;;8.10;99.90;;;;;;4965099;28;20094;-78
2023/10/28 03:30:49;;;;;;;8.70;0.70;;;8.10;99.90;;;;;;4963848;29;20361;-78
2023/10/28 03:33:15;;;;;;;5.68;1.17;;;8.20;99.90;;;;;;4962405;29;20105;-77
2023/10/28 03:35:41;;;;;;;1.52;0.40;;;8.20;99.90;;;;;;4962091;29;20027;-79
2023/10/28 03:38:07;;;;;;;5.38;0.60;;;8.10;99.90;;;;;;4962617;29;20034;-79
2023/10/28 03:40:34;;;;;;;3.03;0.77;;;8.00;99.90;;;;;;4963051;29;20027;-79
2023/10/28 03:43:00;;;;;;;4.13;0.88;;;8.00;99.90;;;;;;4965373;29;20035;-79
2023/10/28 03:45:26;;;;;;;1.38;0.70;;;7.90;99.90;;;;;;4965972;29;20027;-78
2023/10/28 03:47:51;;;;;;;2.70;0.40;;;7.80;99.90;;;;;;4969358;29;20024;-79
2023/10/28 03:50:17;;;;;;;5.15;0.50;;;7.80;99.90;;;;;;4968693;29;20438;-78
2023/10/28 03:52:42;;;;;;;0.80;0.50;;;7.60;99.90;;;;;;4967626;29;20035;-78
2023/10/28 03:55:08;;;;;;;4.85;0.45;;;7.50;99.90;;;;;;4967863;29;20031;-78
2023/10/28 03:57:34;;;;;;;1.63;0.38;;;7.40;99.90;;;;;;4966660;29;20027;-78
2023/10/28 04:00:00;;;;;;;1.92;0.50;;;7.20;99.90;;;;;;4966865;29;20049;-78
2023/10/28 04:02:27;;;;;;;6.35;1.05;;;7.10;99.90;;;;;;4968016;29;20385;-79
2023/10/28 04:04:53;;;;;;;2.75;1.52;;;7.10;99.90;;;;;;4966716;29;20074;-77
2023/10/28 04:07:19;;;;;;;1.50;0.70;;;7.00;99.90;;;;;;4967065;28;20079;-79
2023/10/28 04:09:44;;;;;;;1.52;0.63;;;7.00;99.90;;;;;;4968107;29;20484;-80
2023/10/28 04:12:10;;;;;;;3.25;0.60;;;7.10;99.90;;;;;;4968633;29;20029;-79
2023/10/28 04:14:36;;;;;;;2.40;0.60;;;7.10;99.90;;;;;;4962467;29;20039;-78
2023/10/28 04:17:03;;;;;;;3.72;0.50;;;7.00;99.90;;;;;;4961290;28;20027;-78
2023/10/28 04:19:29;;;;;;;3.50;0.70;;;7.00;99.90;;;;;;4962813;28;20059;-78
2023/10/28 04:21:55;;;;;;;0.68;0.68;;;6.90;99.90;;;;;;4966012;28;20380;-78
2023/10/28 04:24:22;;;;;;;0.43;0.43;;;6.90;99.90;;;;;;4967279;28;20555;-79
2023/10/28 04:26:47;;;;;;;1.52;0.60;;;6.90;99.90;;;;;;4968953;28;20027;-79
2023/10/28 04:29:13;;;;;;;4.15;0.77;;;6.90;99.90;;;;;;4969755;29;20506;-80
2023/10/28 04:31:39;;;;;;;1.85;0.55;;;6.90;99.90;;;;;;4970582;29;20023;-81
2023/10/28 04:34:05;;;;;;;1.30;0.60;;;6.80;99.90;;;;;;4971702;29;20027;-81
2023/10/28 04:36:31;;;;;;;2.95;0.55;;;6.90;99.90;;;;;;4971822;29;20046;-80
2023/10/28 04:38:57;;;;;;;0.50;0.50;;;6.70;99.90;;;;;;4971132;29;20050;-78
2023/10/28 04:41:22;;;;;;;1.42;0.50;;;6.70;99.90;;;;;;4969574;29;20110;-79
2023/10/28 04:43:48;;;;;;;0.38;0.38;;;6.60;99.90;;;;;;4969872;29;20027;-80
2023/10/28 04:46:15;;;;;;;3.50;0.60;;;6.60;99.90;;;;;;4970894;29;20023;-80
2023/10/28 04:48:46;;;;;;;1.83;0.70;;;6.40;99.90;;;;;;4972129;29;20028;-79
2023/10/28 04:51:13;;;;;;;3.97;0.60;;;6.40;99.90;;;;;;4969298;29;20062;-78
2023/10/28 04:53:39;;;;;;;0.80;0.70;;;6.40;99.90;;;;;;4972784;29;20435;-79
2023/10/28 04:56:08;;;;;;;2.17;0.40;;;6.40;99.90;;;;;;4970803;29;20047;-80
2023/10/28 04:58:34;;;;;;;3.28;1.33;;;6.40;99.90;;;;;;4972401;28;20023;-79
2023/10/28 05:00:59;;;;;;;1.20;0.30;;;6.40;99.90;;;;;;4970543;29;20027;-78
2023/10/28 05:03:25;;;;;;;0.45;0.45;;;6.50;99.90;;;;;;4970294;29;20038;-79
2023/10/28 05:05:51;;;;;;;2.35;0.57;;;6.50;99.90;;;;;;4970434;29;20023;-79
2023/10/28 05:08:16;;;;;;;1.23;0.88;;;6.60;99.90;;;;;;4971224;29;20063;-80
2023/10/28 05:10:42;;;;;;;2.28;0.65;;;6.70;99.90;;;;;;4972052;29;20023;-78
2023/10/28 05:13:13;;;;;;;1.55;0.60;;;6.60;99.90;;;;;;4972479;29;20066;-79
2023/10/28 05:15:39;;;;;;;0.40;0.40;;;6.70;99.90;;;;;;4971598;29;20023;-79
2023/10/28 05:18:05;;;;;;;1.02;0.80;;;6.70;99.90;;;;;;4970861;28;20058;-79
2023/10/28 05:20:33;;;;;;;6.07;0.60;;;6.70;99.90;;;;;;4967909;29;20026;-79
2023/10/28 05:22:59;;;;;;;3.03;0.57;;;6.80;99.90;;;;;;4969787;29;20038;-79
2023/10/28 05:25:25;;;;;;;2.80;0.60;;;6.80;99.90;;;;;;4969690;29;20028;-79
2023/10/28 05:27:50;;;;;;;2.97;0.60;;;6.90;99.90;;;;;;4972118;29;20046;-79
2023/10/28 05:30:16;;;;;;;1.20;0.50;;;7.00;99.90;;;;;;4970884;29;20036;-80
2023/10/28 05:32:42;;;;;;;2.92;0.88;;;7.00;99.90;;;;;;4968890;29;20027;-80
2023/10/28 05:35:11;;;;;;;10.50;0.70;;;7.00;99.90;;;;;;4971192;29;20472;-79
2023/10/28 05:37:37;;;;;;;1.15;0.60;;;7.00;99.90;;;;;;4970878;29;20039;-79
2023/10/28 05:40:05;;;;;;;3.72;1.15;;;7.10;99.90;;;;;;4969752;29;20086;-79
2023/10/28 05:42:30;;;;;;;0.65;0.60;;;7.00;99.90;;;;;;4966833;29;20396;-78
2023/10/28 05:44:56;;;;;;;0.73;0.63;;;6.90;99.90;;;;;;4968589;29;20038;-79
2023/10/28 05:47:22;;;;;;;1.23;0.65;;;6.90;99.90;;;;;;4968353;29;20041;-79
2023/10/28 05:49:47;;;;;;;1.45;0.70;;;6.70;99.90;;;;;;4968458;29;20039;-79
2023/10/28 05:52:18;;;;;;;0.30;0.30;;;6.60;99.90;;;;;;4969801;29;20078;-80
2023/10/28 05:54:44;;;;;;;3.67;0.90;;;6.50;99.90;;;;;;4969561;28;20067;-79
2023/10/28 05:57:09;;;;;;;3.03;0.82;;;6.40;99.90;;;;;;4967170;28;20031;-78
2023/10/28 05:59:35;;;;;;;0.60;0.40;;;6.30;99.90;;;;;;4964772;29;20033;-80
2023/10/28 06:02:03;;;;;;;1.65;0.73;;;6.30;99.90;;;;;;4965380;29;20054;-79
2023/10/28 06:04:31;;;;;;;1.10;0.95;;;6.30;99.90;;;;;;4965869;29;20023;-80
2023/10/28 06:06:57;;;;;;;0.98;0.50;;;6.40;99.90;;;;;;4967736;29;20031;-79
2023/10/28 06:09:23;;;;;;;2.35;0.60;;;6.40;99.90;;;;;;4969026;28;20050;-80
2023/10/28 06:11:50;;;;;;;1.02;0.70;;;6.40;99.90;;;;;;4968722;29;20030;-78
2023/10/28 06:14:16;;;;;;;3.45;0.63;;;6.50;99.90;;;;;;4969366;28;20059;-80
2023/10/28 06:16:42;;;;;;;3.08;0.80;;;6.50;99.90;;;;;;4966483;29;20024;-79
2023/10/28 06:19:10;;;;;;;1.10;0.98;;;6.50;99.90;;;;;;4967298;28;20047;-78
2023/10/28 06:21:35;;;;;;;5.55;1.05;;;6.50;99.90;;;;;;4969707;28;20015;-80
2023/10/28 06:24:02;;;;;;;5.10;1.45;;;6.60;99.90;;;;;;4967302;29;20118;-79
2023/10/28 06:26:28;;;;;;;3.42;1.00;;;6.70;99.90;;;;;;4967643;29;20031;-79
2023/10/28 06:28:54;;;;;;;2.75;0.90;;;6.80;99.90;;;;;;4968076;29;20098;-78
2023/10/28 06:31:20;;;;;;;0.90;0.50;;;6.80;99.90;;;;;;4967117;28;20042;-81
2023/10/28 06:33:46;;;;;;;1.98;0.60;;;7.00;99.90;;;;;;4967258;29;20023;-79
2023/10/28 06:36:14;;;;;;;2.40;0.90;;;7.10;99.90;;;;;;4967914;29;20548;-79
2023/10/28 06:38:40;;;;;;;4.47;0.60;;;7.10;99.90;;;;;;4972268;29;20030;-79
2023/10/28 06:41:05;;;;;;;1.45;1.35;;;7.10;99.90;;;;;;4971816;29;20039;-81
2023/10/28 06:43:31;;;;;;;4.57;1.30;;;7.30;99.90;;;;;;4972625;29;20054;-79
2023/10/28 06:45:58;;;;;;;2.78;1.30;;;7.50;99.90;;;;;;4975694;28;20027;-79
2023/10/28 06:48:26;;;;;;;3.20;1.20;;;7.70;99.90;;;;;;4969219;28;20118;-78
2023/10/28 06:50:52;;;;;;;6.00;2.92;;;7.80;99.90;;;;;;4960012;29;20019;-78
2023/10/28 06:53:21;;;;;;;7.32;4.70;;;8.00;99.90;;;;;;4962362;29;20023;-77
2023/10/28 06:55:48;;;;;;;7.32;2.95;;;8.00;99.90;;;;;;4960711;29;20031;-78
2023/10/28 06:58:15;;;;;;;4.47;3.15;;;8.10;99.90;;;;;;4963257;28;20055;-78
2023/10/28 07:00:41;;;;;;;9.05;4.07;;;8.40;99.90;;;;;;4960413;29;20020;-78
2023/10/28 07:03:07;;;;;;;8.02;6.88;;;8.40;99.90;;;;;;4969888;29;20083;-79
2023/10/28 07:05:34;;;;;;;10.18;6.28;;;8.40;99.90;;;;;;4971435;29;20034;-79
2023/10/28 07:08:00;;;;;;;9.38;7.18;;;8.50;99.90;;;;;;4971632;28;20071;-78
2023/10/28 07:10:27;;;;;;;7.53;6.43;;;8.40;99.90;;;;;;4972094;29;20035;-80
2023/10/28 07:12:52;;;;;;;8.48;4.97;;;8.40;99.90;;;;;;4971637;29;20019;-79
2023/10/28 07:15:18;;;;;;;5.53;4.47;;;8.60;99.90;;;;;;4970484;29;20104;-81
2023/10/28 07:17:44;;;;;;;4.93;3.63;;;8.70;99.90;;;;;;4971577;29;20047;-80
2023/10/28 07:20:10;;;;;;;10.45;3.20;;;8.80;99.90;;;;;;4969058;29;20024;-77
2023/10/28 07:22:41;;;;;;;9.85;3.83;;;8.80;99.90;;;;;;4970928;29;20031;-80
2023/10/28 07:25:08;;;;;;;6.22;3.33;;;8.80;99.90;;;;;;4973218;29;20043;-79
2023/10/28 07:27:34;;;;;;;8.82;4.15;;;8.80;99.90;;;;;;4971445;29;20388;-79
2023/10/28 07:29:59;;;;;;;4.55;2.90;;;8.90;99.90;;;;;;4972191;29;20070;-80
2023/10/28 07:32:25;;;;;;;3.95;3.55;;;8.90;99.90;;;;;;4976329;29;20032;-78
2023/10/28 07:34:51;;;;;;;12.05;5.00;;;9.10;99.90;;;;;;4976253;29;20027;-78
2023/10/28 07:37:17;;;;;;;17.88;8.65;;;9.20;99.90;;;;;;4974921;29;20104;-79
2023/10/28 07:39:44;;;;;;;31.98;8.30;;;9.30;99.90;;;;;;4973465;29;20050;-78
2023/10/28 07:42:10;;;;;;;10.60;3.78;;;9.40;99.90;;;;;;4975821;28;20046;-77
2023/10/28 07:44:37;;;;;;;6.22;4.13;;;9.60;99.90;;;;;;4973725;29;20027;-80
2023/10/28 07:47:04;;;;;;;10.95;7.55;;;9.80;99.90;;;;;;4974989;28;20062;-80
2023/10/28 07:49:29;;;;;;;9.82;6.43;;;9.90;99.90;;;;;;4974768;29;20035;-80
2023/10/28 07:51:55;;;;;;;7.03;4.63;;;10.20;99.90;;;;;;4975442;29;20050;-81
2023/10/28 07:54:21;;;;;;;9.85;4.60;;;10.50;99.90;;;;;;4976574;29;20027;-80
2023/10/28 07:56:46;;;;;;;8.02;3.30;;;10.80;99.90;;;;;;4977164;29;20019;-78
2023/10/28 07:59:16;;;;;;;6.68;3.25;;;11.10;99.90;;;;;;4979209;29;20015;-77
2023/10/28 08:01:41;;;;;;;4.88;1.90;;;11.30;99.90;;;;;;4975054;29;20024;-80
2023/10/28 08:04:08;;;;;;;6.78;2.53;;;11.40;99.90;;;;;;4974922;29;20055;-80
2023/10/28 08:06:34;;;;;;;6.07;1.30;;;11.60;99.90;;;;;;4978205;28;20007;-80
2023/10/28 08:09:00;;;;;;;1.02;0.90;;;11.80;99.90;;;;;;4977389;29;20036;-79
2023/10/28 08:11:28;;;;;;;1.20;0.80;;;11.90;99.90;;;;;;4973734;29;20023;-80
2023/10/28 08:13:54;;;;;;;3.65;0.93;;;12.20;99.90;;;;;;4974751;28;20472;-78
2023/10/28 08:16:20;;;;;;;4.35;0.70;;;12.40;99.90;;;;;;4964710;29;20047;-78
2023/10/28 08:18:49;;;;;;;2.58;1.48;;;12.60;99.90;;;;;;4971808;29;20107;-79
2023/10/28 08:21:16;;;;;;;2.75;0.80;;;12.80;99.90;;;;;;4974949;28;20091;-79
2023/10/28 08:23:45;;;;;;;1.50;0.70;;;13.00;99.90;;;;;;4973906;29;20065;-79
2023/10/28 08:26:11;;;;;;;1.20;0.77;;;13.10;99.90;;;;;;4966756;29;20027;-79
2023/10/28 08:28:37;;;;;;;2.40;0.45;;;13.20;99.90;;;;;;4967922;29;20082;-80
2023/10/28 08:31:10;;;;;;;6.38;0.90;;;13.30;99.90;;;;;;4963477;28;20031;-79
2023/10/28 08:33:36;;;;;;;3.92;0.80;;;13.40;99.90;;;;;;4963580;28;20472;-78
2023/10/28 08:36:03;;;;;;;2.67;1.05;;;13.40;99.90;;;;;;4961439;29;20035;-78
2023/10/28 08:38:29;;;;;;;5.38;0.88;;;13.50;99.90;;;;;;4961483;29;20055;-79
2023/10/28 08:40:58;;;;;;;4.65;0.80;;;13.60;99.80;;;;;;4967283;28;20039;-79
2023/10/28 08:43:25;;;;;;;5.00;0.95;;;13.70;99.90;;;;;;4967950;29;20039;-79
2023/10/28 08:45:53;;;;;;;1.65;0.50;;;13.70;99.90;;;;;;4971000;28;20094;-78
2023/10/28 08:48:21;;;;;;;5.95;0.73;;;13.70;99.50;;;;;;4972240;29;20278;-79
2023/10/28 08:50:55;;;;;;;3.67;0.98;;;13.70;99.90;;;;;;4972973;28;20023;-79
2023/10/28 08:53:21;;;;;;;2.78;0.70;;;13.90;97.30;;;;;;4970717;28;20030;-81
2023/10/28 08:55:50;;;;;;;1.30;0.85;;;14.00;97.70;;;;;;4971487;28;20206;-79
2023/10/28 08:58:18;;;;;;;2.60;0.98;;;14.00;97.70;;;;;;4972921;28;20023;-79
2023/10/28 09:00:46;;;;;;;5.75;1.10;;;14.10;97.10;;;;;;4972946;29;20087;-80
2023/10/28 09:03:20;;;;;;;1.63;0.70;;;14.10;96.50;;;;;;4980105;28;20027;-80
2023/10/28 09:05:48;;;;;;;3.03;0.73;;;14.20;94.80;;;;;;5069062;23;20039;-79
2023/10/28 09:08:14;;;;;;;4.03;0.98;;;14.40;96.10;;;;;;4978551;28;20115;-79
2023/10/28 09:10:41;;;;;;;2.65;0.90;;;14.40;94.40;;;;;;4974208;29;20019;-80
2023/10/28 09:13:07;;;;;;;3.72;1.02;;;14.50;94.70;;;;;;4977232;29;20024;-78
2023/10/28 09:15:37;;;;;;;5.15;1.48;;;14.60;94.10;;;;;;4974021;29;20027;-81
2023/10/28 09:18:03;;;;;;;4.95;1.00;;;14.70;94.30;;;;;;4974602;28;20215;-79
2023/10/28 09:20:29;;;;;;;5.60;0.90;;;14.70;94.00;;;;;;4973182;29;20019;-81
2023/10/28 09:22:54;;;;;;;3.35;0.98;;;14.80;94.00;;;;;;4972995;29;20112;-80
2023/10/28 09:25:21;;;;;;;3.35;0.88;;;14.90;93.10;;;;;;4969839;29;20023;-80
2023/10/28 09:27:47;;;;;;;4.65;1.48;;;14.90;92.20;;;;;;4973881;29;20043;-78
2023/10/28 09:30:15;;;;;;;1.70;0.88;;;14.90;92.50;;;;;;4973316;28;20058;-79
2023/10/28 09:32:41;;;;;;;2.45;0.73;;;14.90;91.70;;;;;;4974119;28;19999;-80
2023/10/28 09:35:08;;;;;;;3.65;1.00;;;14.90;91.90;;;;;;4976753;29;20023;-78
2023/10/28 09:37:38;;;;;;;2.63;0.90;;;14.90;92.20;;;;;;4976174;29;20021;-79
2023/10/28 09:40:07;;;;;;;3.08;0.70;;;14.90;91.80;;;;;;4974520;29;20030;-80
2023/10/28 09:42:37;;;;;;;3.33;1.15;;;15.00;91.20;;;;;;4970292;29;20070;-79
2023/10/28 09:45:06;;;;;;;3.20;0.95;;;15.10;91.80;;;;;;4963067;29;20118;-79
2023/10/28 09:47:56;;;;;;;2.13;0.70;;;15.30;90.40;;;;;;4963220;28;20035;-80
2023/10/28 09:50:23;;;;;;;;;;;15.30;89.60;;;;;;4962928;29;20095;-79
2023/10/28 09:52:52;;;;;;;1.95;0.85;;;15.40;88.70;;;;;;4964804;29;19907;-80
2023/10/28 09:55:30;;;;;;;6.25;1.15;;;15.50;89.80;;;;;;4962284;29;20086;-77
2023/10/28 09:58:13;;;;;;;3.65;0.80;;;15.50;89.70;;;;;;4960403;28;20023;-78
2023/10/28 10:00:46;;;;;;;3.53;0.70;;;15.60;87.60;;;;;;4958820;28;20030;-78
2023/10/28 10:03:17;;;;;;;2.33;0.70;;;15.60;87.80;;;;;;4960336;28;20023;-77
2023/10/28 10:05:45;;;;;;;4.50;1.48;;;15.60;88.10;;;;;;4960224;28;20101;-77
2023/10/28 10:08:22;;;;;;;4.97;0.90;;;15.70;90.00;;;;;;4962215;28;20024;-78
2023/10/28 10:10:53;;;;;;;3.83;0.73;;;15.80;87.80;;;;;;4959238;28;20037;-78
2023/10/28 10:13:19;;;;;;;3.55;1.40;;;16.00;86.80;;;;;;4959985;29;20215;-77
2023/10/28 10:16:00;;;;;;;4.95;1.17;;;16.40;86.20;;;;;;4969026;28;20022;-78
2023/10/28 10:18:54;;;;;;;5.68;0.65;;;16.90;86.20;;;;;;4967084;28;20038;-77
2023/10/28 10:21:20;;;;;;;2.38;0.80;;;17.40;85.40;;;;;;4958479;28;20028;-77
2023/10/28 10:23:52;;;;;;;6.10;1.20;;;17.40;81.60;;;;;;4958989;29;20030;-78
2023/10/28 10:26:23;;;;;;;1.55;0.65;;;17.50;82.60;;;;;;4967022;28;20027;-78
2023/10/28 10:28:55;;;;;;;2.92;1.02;;;17.60;80.40;;;;;;4969361;29;20265;-79
2023/10/28 10:31:33;;;;;;;2.38;1.08;;;17.60;80.60;;;;;;4970605;29;20015;-78
2023/10/28 10:34:07;;;;;;;1.45;0.70;;;17.50;78.10;;;;;;4971680;28;20019;-80
2023/10/28 10:36:38;;;;;;;2.50;0.80;;;17.30;81.30;;;;;;4972738;28;20023;-81
2023/10/28 10:39:20;;;;;;;1.27;0.52;;;17.10;81.10;;;;;;4971908;29;20390;-80
2023/10/28 10:41:53;;;;;;;4.75;1.00;;;16.70;77.60;;;;;;4973138;28;20027;-80
2023/10/28 10:44:46;;;;;;;4.78;1.27;;;16.50;79.10;;;;;;4971904;29;20030;-81
2023/10/28 10:47:17;;;;;;;2.47;0.80;;;16.40;79.10;;;;;;4968973;29;20066;-76
2023/10/28 10:49:43;;;;;;;2.35;0.82;;;16.50;79.90;;;;;;4976355;29;20035;-79
2023/10/28 10:52:24;;;;;;;1.85;0.52;;;16.70;81.10;;;;;;4976105;29;20062;-79
2023/10/28 10:54:51;;;;;;;2.38;0.73;;;16.80;78.30;;;;;;4978152;28;20082;-78
2023/10/28 10:57:16;;;;;;;0.77;0.55;;;16.90;78.30;;;;;;4977825;28;20027;-79
2023/10/28 11:02:58;;;;;;;2.20;0.77;;;16.90;77.50;;;;;;4971428;28;20046;-79
2023/10/28 11:05:30;;;;;;;2.83;0.63;;;16.80;78.30;;;;;;4968660;29;20023;-78
2023/10/28 11:11:35;;;;;;;2.58;0.50;;;16.90;77.50;;;;;;4919093;28;20068;-78
2023/10/28 11:14:05;;;;;;;2.17;0.70;;;16.90;77.50;;;;;;4992998;23;20106;-79
2023/10/28 11:16:32;;;;;;;3.05;0.57;;;16.90;78.60;;;;;;4984182;28;20035;-82
2023/10/28 11:19:02;;;;;;;7.05;0.63;;;16.90;78.30;;;;;;5002874;28;20003;-80
2023/10/28 11:21:30;;;;;;;2.47;0.70;;;17.00;79.60;;;;;;5003184;28;20018;-80
2023/10/28 11:23:56;;;;;;;5.25;0.90;;;17.00;77.80;;;;;;4986207;28;20037;-78
2023/10/28 11:26:29;;;;;;;2.00;0.80;;;17.20;79.90;;;;;;4986274;28;20021;-77
2023/10/28 11:29:01;;;;;;;4.35;0.80;;;17.20;77.30;;;;;;4985889;28;20061;-78
2023/10/28 11:31:31;;;;;;;3.13;0.60;;;17.40;78.00;;;;;;5002560;28;20014;-79
2023/10/28 11:34:17;;;;;;;1.33;0.80;;;17.40;76.80;;;;;;5000618;28;20035;-78
2023/10/28 11:40:06;;;;;;;3.65;1.02;;;17.90;79.70;;;;;;4986215;28;20097;-80
2023/10/28 11:42:33;;;;;;;2.40;0.70;;;18.30;77.80;;;;;;4977806;28;20027;-83
2023/10/28 11:45:04;;;;;;;3.88;0.80;;;18.50;80.00;;;;;;4983593;28;20022;-89
2023/10/28 11:47:30;;;;;;;1.80;0.70;;;18.60;77.80;;;;;;4985384;28;20031;-81
2023/10/28 11:49:57;;;;;;;2.85;0.85;;;18.70;73.30;;;;;;4978394;28;20061;-88
2023/10/28 11:52:23;;;;;;;2.42;1.00;;;18.80;75.30;;;;;;4961776;28;20023;-84
2023/10/28 11:54:49;;;;;;;3.35;0.70;;;19.00;76.00;;;;;;4964081;28;20034;-81
2023/10/28 11:57:14;;;;;;;2.60;0.63;;;19.10;74.10;;;;;;4963664;28;20023;-85
2023/10/28 11:59:40;;;;;;;2.63;1.10;;;19.20;75.00;;;;;;4986490;28;20078;-81
2023/10/28 12:02:06;;;;;;;4.50;0.60;;;19.10;75.40;;;;;;4980673;28;20050;-79
2023/10/28 12:04:32;;;;;;;3.28;0.60;;;19.20;74.90;;;;;;4962519;28;20061;-78
2023/10/28 12:06:59;;;;;;;3.80;0.82;;;19.40;73.30;;;;;;4979189;28;20035;-79
2023/10/28 12:09:35;;;;;;;2.13;0.73;;;19.30;77.10;;;;;;4949247;28;20054;-79
2023/10/28 12:12:02;;;;;;;1.65;1.15;;;19.20;73.60;;;;;;4965805;28;20492;-79
2023/10/28 12:14:28;;;;;;;2.90;1.35;;;19.10;73.20;;;;;;4990355;28;20046;-78
2023/10/28 12:16:53;;;;;;;1.08;0.60;;;19.40;73.70;;;;;;4969139;28;20023;-80
2023/10/28 12:19:19;;;;;;;1.98;0.60;;;19.50;72.70;;;;;;4984854;28;20195;-81
2023/10/28 12:21:44;;;;;;;2.15;1.40;;;19.60;71.30;;;;;;4983892;28;20030;-80
2023/10/28 12:24:11;;;;;;;2.97;1.13;;;19.60;72.60;;;;;;4968318;28;20339;-81
2023/10/28 12:26:37;;;;;;;4.53;1.25;;;19.60;73.00;;;;;;4988734;28;20023;-81
2023/10/28 12:29:04;;;;;;;2.15;0.50;;;19.60;69.50;;;;;;4972007;28;20035;-80
2023/10/28 12:31:32;;;;;;;4.32;0.35;;;19.60;72.20;;;;;;4990206;28;20115;-80
2023/10/28 12:33:58;;;;;;;0.32;0.32;;;19.40;67.70;;;;;;4988821;28;20342;-79
2023/10/28 12:36:23;;;;;;;0.32;0.25;;;19.60;69.20;;;;;;4971805;28;20114;-85
2023/10/28 12:38:49;;;;;;;0.40;0.40;;;20.40;67.90;;;;;;4981614;28;20454;-84
2023/10/28 12:41:15;;;;;;;3.20;0.57;;;21.80;65.00;;;;;;4966661;28;20339;-80
2023/10/28 12:43:41;;;;;;;0.63;0.45;;;23.40;64.10;;;;;;4966529;28;20307;-84
2023/10/28 12:46:07;;;;;;;1.33;1.23;;;24.10;58.80;;;;;;4984710;28;20031;-87
2023/10/28 12:48:36;;;;;;;0.50;0.50;;;24.40;58.90;;;;;;4988843;28;20041;-79
2023/10/28 12:54:27;;;;;;;0.77;0.28;;;22.80;58.30;;;;;;4990121;28;20086;-89
2023/10/28 12:56:54;;;;;;;0.85;0.40;;;22.90;58.80;;;;;;4967314;28;20051;-80
2023/10/28 12:59:23;;;;;;;2.78;0.40;;;22.20;58.50;;;;;;4969217;28;20031;-85
2023/10/28 13:02:17;;;;;;;1.70;0.40;;;22.10;59.80;;;;;;4982487;28;20027;-78
2023/10/28 13:04:59;;;;;;;0.73;0.52;;;21.40;58.40;;;;;;4989543;28;20035;-78
2023/10/28 13:07:46;;;;;;;1.17;0.30;;;20.00;59.40;;;;;;4995758;28;20086;-78
2023/10/28 13:10:11;;;;;;;0.90;0.38;;;19.10;62.90;;;;;;5049172;23;20142;-79